This is the latest recevied weather packets stored in our database for station/object IZ1UQG-N2. If no packets are shown the sender has not sent any weather packets the latest 10 day(s).
| Time | Temp. | Humidity | Pressure | Rain* | Wind** | Luminosity | Snow |
|---|---|---|---|---|---|---|---|
| 1777711141 | 17.22° C | 59% | 1024.5 hPa | 0 mm | - | 635 W/m² | - |
| 1777711081 | 16.67° C | 59% | 1024.4 hPa | 0 mm | - | 635 W/m² | - |
| 1777711078 | 16.67° C | 59% | 1024.4 hPa | 0 mm | - | 617 W/m² | - |
| 1777711033 | 16.67° C | 59% | 1024.4 hPa | 0 mm | - | 617 W/m² | - |
| 1777711028 | 16.67° C | 60% | 1024.5 hPa | 0 mm | - | 619 W/m² | - |
| 1777711022 | 16.67° C | 58% | 1024.4 hPa | 0 mm | - | 633 W/m² | - |
| 1777710973 | 16.67° C | 60% | 1024.5 hPa | 0 mm | - | 619 W/m² | - |
| 1777710962 | 16.67° C | 58% | 1024.3 hPa | 0 mm | - | 629 W/m² | - |
| 1777710960 | 16.67° C | 57% | 1024.4 hPa | 0 mm | - | 626 W/m² | - |
| 1777710913 | 16.67° C | 60% | 1024.4 hPa | 0 mm | - | 617 W/m² | - |
| 1777710902 | 16.67° C | 57% | 1024.4 hPa | 0 mm | - | 626 W/m² | - |
| 1777710853 | 16.67° C | 60% | 1024.4 hPa | 0 mm | - | 614 W/m² | - |
| 1777710848 | 16.67° C | 60% | 1024.5 hPa | 0 mm | - | 615 W/m² | - |
| 1777710842 | 16.67° C | 59% | 1024.4 hPa | 0 mm | - | 617 W/m² | - |
| 1777710793 | 16.67° C | 60% | 1024.5 hPa | 0 mm | - | 615 W/m² | - |
| 1777710782 | 16.67° C | 59% | 1024.4 hPa | 0 mm | - | 617 W/m² | - |
| 1777710780 | 16.67° C | 60% | 1024.5 hPa | 0 mm | - | 619 W/m² | - |
| 1777710721 | 16.67° C | 60% | 1024.5 hPa | 0 mm | - | 619 W/m² | - |
| 1777710662 | 16.67° C | 60% | 1024.4 hPa | 0 mm | - | 617 W/m² | - |
| 1777710647 | 16.67° C | 59% | 1024.4 hPa | 0 mm | - | 612 W/m² | - |
| 1777710642 | 16.67° C | 59% | 1024.4 hPa | 0 mm | - | 608 W/m² | - |
| 1777710607 | 16.67° C | 59% | 1024.6 hPa | 0 mm | - | 601 W/m² | - |
| 1777710602 | 16.67° C | 60% | 1024.4 hPa | 0 mm | - | 614 W/m² | - |
| 1777710600 | 16.67° C | 60% | 1024.5 hPa | 0 mm | - | 615 W/m² | - |
| 1777710552 | 16.67° C | 59% | 1024.6 hPa | 0 mm | - | 601 W/m² | - |
* Rain latest hour (hover to see other rain measurements)
** Current wind speed in m/s (hover to see current wind gust speed)